sensor_id;sensor_type;location;lat;lon;timestamp;pressure;altitude;pressure_sealevel;temperature
15680;BMP180;15488;48.114;11.532;2022-12-18T00:00:57;96279.00;;;6.00
15680;BMP180;15488;48.114;11.532;2022-12-18T00:03:25;96279.00;;;6.00
15680;BMP180;15488;48.114;11.532;2022-12-18T00:05:54;96281.00;;;6.00
15680;BMP180;15488;48.114;11.532;2022-12-18T00:08:22;96274.00;;;6.00
15680;BMP180;15488;48.114;11.532;2022-12-18T00:10:49;96262.00;;;6.00
15680;BMP180;15488;48.114;11.532;2022-12-18T00:13:17;96266.00;;;6.00
15680;BMP180;15488;48.114;11.532;2022-12-18T00:15:44;96259.00;;;6.00
15680;BMP180;15488;48.114;11.532;2022-12-18T00:18:11;96267.00;;;6.10
15680;BMP180;15488;48.114;11.532;2022-12-18T00:20:39;96271.00;;;6.00
15680;BMP180;15488;48.114;11.532;2022-12-18T00:23:08;96268.00;;;6.00
15680;BMP180;15488;48.114;11.532;2022-12-18T00:25:36;96271.00;;;6.00
15680;BMP180;15488;48.114;11.532;2022-12-18T00:28:04;96268.00;;;6.00
15680;BMP180;15488;48.114;11.532;2022-12-18T00:30:32;96272.00;;;6.00
15680;BMP180;15488;48.114;11.532;2022-12-18T00:32:59;96284.00;;;6.00
15680;BMP180;15488;48.114;11.532;2022-12-18T00:35:26;96294.00;;;5.90
15680;BMP180;15488;48.114;11.532;2022-12-18T00:37:54;96295.00;;;5.90
15680;BMP180;15488;48.114;11.532;2022-12-18T00:40:23;96299.00;;;5.90
15680;BMP180;15488;48.114;11.532;2022-12-18T00:42:50;96324.00;;;5.90
15680;BMP180;15488;48.114;11.532;2022-12-18T00:45:27;96302.00;;;5.90
15680;BMP180;15488;48.114;11.532;2022-12-18T00:47:54;96300.00;;;5.90
15680;BMP180;15488;48.114;11.532;2022-12-18T00:50:22;96296.00;;;5.90
15680;BMP180;15488;48.114;11.532;2022-12-18T00:52:50;96297.00;;;5.90
15680;BMP180;15488;48.114;11.532;2022-12-18T00:55:18;96302.00;;;5.90
15680;BMP180;15488;48.114;11.532;2022-12-18T00:57:46;96305.00;;;5.90
15680;BMP180;15488;48.114;11.532;2022-12-18T01:00:15;96299.00;;;5.80
15680;BMP180;15488;48.114;11.532;2022-12-18T01:02:43;96302.00;;;5.80
15680;BMP180;15488;48.114;11.532;2022-12-18T01:05:12;96304.00;;;5.80
15680;BMP180;15488;48.114;11.532;2022-12-18T01:07:39;96322.00;;;5.80
15680;BMP180;15488;48.114;11.532;2022-12-18T01:10:09;96318.00;;;5.80
15680;BMP180;15488;48.114;11.532;2022-12-18T01:12:38;96323.00;;;5.80
15680;BMP180;15488;48.114;11.532;2022-12-18T01:15:09;96353.00;;;5.80
15680;BMP180;15488;48.114;11.532;2022-12-18T01:17:37;96330.00;;;5.80
15680;BMP180;15488;48.114;11.532;2022-12-18T01:20:05;96335.00;;;5.80
15680;BMP180;15488;48.114;11.532;2022-12-18T01:22:36;96343.00;;;5.80
15680;BMP180;15488;48.114;11.532;2022-12-18T01:25:04;96347.00;;;5.80
15680;BMP180;15488;48.114;11.532;2022-12-18T01:27:34;96350.00;;;5.80
15680;BMP180;15488;48.114;11.532;2022-12-18T01:30:01;96363.00;;;5.70
15680;BMP180;15488;48.114;11.532;2022-12-18T01:32:31;96357.00;;;5.70
15680;BMP180;15488;48.114;11.532;2022-12-18T01:34:59;96348.00;;;5.70
15680;BMP180;15488;48.114;11.532;2022-12-18T01:37:27;96355.00;;;5.70
15680;BMP180;15488;48.114;11.532;2022-12-18T01:39:54;96358.00;;;5.60
15680;BMP180;15488;48.114;11.532;2022-12-18T01:42:22;96354.00;;;5.60
15680;BMP180;15488;48.114;11.532;2022-12-18T01:44:59;96366.00;;;5.50
15680;BMP180;15488;48.114;11.532;2022-12-18T01:47:31;96369.00;;;5.50
15680;BMP180;15488;48.114;11.532;2022-12-18T01:50:03;96368.00;;;5.50
15680;BMP180;15488;48.114;11.532;2022-12-18T01:52:32;96368.00;;;5.50
15680;BMP180;15488;48.114;11.532;2022-12-18T01:55:02;96365.00;;;5.50
15680;BMP180;15488;48.114;11.532;2022-12-18T01:57:30;96359.00;;;5.50
15680;BMP180;15488;48.114;11.532;2022-12-18T02:00:00;96363.00;;;5.50
15680;BMP180;15488;48.114;11.532;2022-12-18T02:02:29;96360.00;;;5.50
15680;BMP180;15488;48.114;11.532;2022-12-18T02:04:58;96360.00;;;5.50
15680;BMP180;15488;48.114;11.532;2022-12-18T02:07:31;96362.00;;;5.40
15680;BMP180;15488;48.114;11.532;2022-12-18T02:10:05;96351.00;;;5.50
15680;BMP180;15488;48.114;11.532;2022-12-18T02:12:42;96348.00;;;5.40
15680;BMP180;15488;48.114;11.532;2022-12-18T02:15:15;96340.00;;;5.40
15680;BMP180;15488;48.114;11.532;2022-12-18T02:17:50;96343.00;;;5.50
15680;BMP180;15488;48.114;11.532;2022-12-18T02:20:25;96348.00;;;5.50
15680;BMP180;15488;48.114;11.532;2022-12-18T02:23:04;96350.00;;;5.50
15680;BMP180;15488;48.114;11.532;2022-12-18T02:26:00;96345.00;;;5.50
15680;BMP180;15488;48.114;11.532;2022-12-18T02:28:32;96339.00;;;5.50
15680;BMP180;15488;48.114;11.532;2022-12-18T02:31:02;96355.00;;;5.50
15680;BMP180;15488;48.114;11.532;2022-12-18T02:33:32;96370.00;;;5.50
15680;BMP180;15488;48.114;11.532;2022-12-18T02:36:00;96374.00;;;5.50
15680;BMP180;15488;48.114;11.532;2022-12-18T02:38:29;96346.00;;;5.50
15680;BMP180;15488;48.114;11.532;2022-12-18T02:40:57;96344.00;;;5.50
15680;BMP180;15488;48.114;11.532;2022-12-18T02:43:26;96350.00;;;5.50
15680;BMP180;15488;48.114;11.532;2022-12-18T02:45:56;96355.00;;;5.50
15680;BMP180;15488;48.114;11.532;2022-12-18T02:48:26;96337.00;;;5.40
15680;BMP180;15488;48.114;11.532;2022-12-18T02:50:59;96338.00;;;5.40
15680;BMP180;15488;48.114;11.532;2022-12-18T02:53:36;96344.00;;;5.40
15680;BMP180;15488;48.114;11.532;2022-12-18T02:56:09;96348.00;;;5.40
15680;BMP180;15488;48.114;11.532;2022-12-18T02:58:47;96350.00;;;5.40
15680;BMP180;15488;48.114;11.532;2022-12-18T03:01:19;96356.00;;;5.40
15680;BMP180;15488;48.114;11.532;2022-12-18T03:03:53;96354.00;;;5.40
15680;BMP180;15488;48.114;11.532;2022-12-18T03:06:25;96353.00;;;5.40
15680;BMP180;15488;48.114;11.532;2022-12-18T03:08:58;96350.00;;;5.40
15680;BMP180;15488;48.114;11.532;2022-12-18T03:11:28;96337.00;;;5.40
15680;BMP180;15488;48.114;11.532;2022-12-18T03:14:21;96355.00;;;5.40
15680;BMP180;15488;48.114;11.532;2022-12-18T03:16:54;96340.00;;;5.40
15680;BMP180;15488;48.114;11.532;2022-12-18T03:19:27;96330.00;;;5.40
15680;BMP180;15488;48.114;11.532;2022-12-18T03:21:57;96322.00;;;5.40
15680;BMP180;15488;48.114;11.532;2022-12-18T03:24:27;96335.00;;;5.50
15680;BMP180;15488;48.114;11.532;2022-12-18T03:26:59;96342.00;;;5.50
15680;BMP180;15488;48.114;11.532;2022-12-18T03:29:34;96334.00;;;5.40
15680;BMP180;15488;48.114;11.532;2022-12-18T03:32:06;96334.00;;;5.50
15680;BMP180;15488;48.114;11.532;2022-12-18T03:34:37;96359.00;;;5.50
15680;BMP180;15488;48.114;11.532;2022-12-18T03:37:05;96347.00;;;5.50
15680;BMP180;15488;48.114;11.532;2022-12-18T03:39:33;96348.00;;;5.50
15680;BMP180;15488;48.114;11.532;2022-12-18T03:42:05;96354.00;;;5.40
15680;BMP180;15488;48.114;11.532;2022-12-18T03:44:39;96343.00;;;5.40
15680;BMP180;15488;48.114;11.532;2022-12-18T03:47:12;96350.00;;;5.40
15680;BMP180;15488;48.114;11.532;2022-12-18T03:49:45;96353.00;;;5.40
15680;BMP180;15488;48.114;11.532;2022-12-18T03:52:19;96347.00;;;5.40
15680;BMP180;15488;48.114;11.532;2022-12-18T03:54:48;96341.00;;;5.40
15680;BMP180;15488;48.114;11.532;2022-12-18T03:57:18;96343.00;;;5.40
15680;BMP180;15488;48.114;11.532;2022-12-18T03:59:50;96342.00;;;5.40
15680;BMP180;15488;48.114;11.532;2022-12-18T04:02:18;96346.00;;;5.40
15680;BMP180;15488;48.114;11.532;2022-12-18T04:04:49;96345.00;;;5.40
15680;BMP180;15488;48.114;11.532;2022-12-18T04:07:17;96350.00;;;5.40
15680;BMP180;15488;48.114;11.532;2022-12-18T04:09:46;96357.00;;;5.50
15680;BMP180;15488;48.114;11.532;2022-12-18T04:12:15;96355.00;;;5.50
15680;BMP180;15488;48.114;11.532;2022-12-18T04:14:42;96353.00;;;5.50
15680;BMP180;15488;48.114;11.532;2022-12-18T04:17:11;96358.00;;;5.50
15680;BMP180;15488;48.114;11.532;2022-12-18T04:19:39;96364.00;;;5.50
15680;BMP180;15488;48.114;11.532;2022-12-18T04:22:06;96364.00;;;5.50
15680;BMP180;15488;48.114;11.532;2022-12-18T04:24:34;96357.00;;;5.50
15680;BMP180;15488;48.114;11.532;2022-12-18T04:27:01;96360.00;;;5.50
15680;BMP180;15488;48.114;11.532;2022-12-18T04:29:28;96358.00;;;5.50
15680;BMP180;15488;48.114;11.532;2022-12-18T04:31:56;96351.00;;;5.50
15680;BMP180;15488;48.114;11.532;2022-12-18T04:34:25;96358.00;;;5.50
15680;BMP180;15488;48.114;11.532;2022-12-18T04:36:52;96385.00;;;5.50
15680;BMP180;15488;48.114;11.532;2022-12-18T04:39:20;96366.00;;;5.50
15680;BMP180;15488;48.114;11.532;2022-12-18T04:41:47;96353.00;;;5.50
15680;BMP180;15488;48.114;11.532;2022-12-18T04:44:15;96353.00;;;5.50
15680;BMP180;15488;48.114;11.532;2022-12-18T04:46:42;96363.00;;;5.50
15680;BMP180;15488;48.114;11.532;2022-12-18T04:49:09;96364.00;;;5.50
15680;BMP180;15488;48.114;11.532;2022-12-18T04:51:38;96363.00;;;5.50
15680;BMP180;15488;48.114;11.532;2022-12-18T04:54:06;96379.00;;;5.50
15680;BMP180;15488;48.114;11.532;2022-12-18T04:56:33;96386.00;;;5.50
15680;BMP180;15488;48.114;11.532;2022-12-18T04:59:01;96387.00;;;5.50
15680;BMP180;15488;48.114;11.532;2022-12-18T05:01:28;96388.00;;;5.50
15680;BMP180;15488;48.114;11.532;2022-12-18T05:03:56;96382.00;;;5.50
15680;BMP180;15488;48.114;11.532;2022-12-18T05:06:23;96389.00;;;5.50
15680;BMP180;15488;48.114;11.532;2022-12-18T05:08:52;96389.00;;;5.50
15680;BMP180;15488;48.114;11.532;2022-12-18T05:11:19;96379.00;;;5.50
15680;BMP180;15488;48.114;11.532;2022-12-18T05:13:47;96379.00;;;5.50
15680;BMP180;15488;48.114;11.532;2022-12-18T05:16:15;96389.00;;;5.50
15680;BMP180;15488;48.114;11.532;2022-12-18T05:18:42;96391.00;;;5.50
15680;BMP180;15488;48.114;11.532;2022-12-18T05:21:10;96396.00;;;5.50
15680;BMP180;15488;48.114;11.532;2022-12-18T05:23:37;96399.00;;;5.60
15680;BMP180;15488;48.114;11.532;2022-12-18T05:26:07;96398.00;;;5.60
15680;BMP180;15488;48.114;11.532;2022-12-18T05:28:36;96392.00;;;5.60
15680;BMP180;15488;48.114;11.532;2022-12-18T05:31:04;96389.00;;;5.60
15680;BMP180;15488;48.114;11.532;2022-12-18T05:33:33;96389.00;;;5.60
15680;BMP180;15488;48.114;11.532;2022-12-18T05:36:03;96394.00;;;5.60
15680;BMP180;15488;48.114;11.532;2022-12-18T05:38:32;96401.00;;;5.60
15680;BMP180;15488;48.114;11.532;2022-12-18T05:41:00;96404.00;;;5.50
15680;BMP180;15488;48.114;11.532;2022-12-18T05:43:29;96413.00;;;5.50
15680;BMP180;15488;48.114;11.532;2022-12-18T05:45:57;96405.00;;;5.50
15680;BMP180;15488;48.114;11.532;2022-12-18T05:48:24;96412.00;;;5.50
15680;BMP180;15488;48.114;11.532;2022-12-18T05:50:51;96414.00;;;5.50
15680;BMP180;15488;48.114;11.532;2022-12-18T05:53:20;96272.00;;;5.50
15680;BMP180;15488;48.114;11.532;2022-12-18T05:55:48;96409.00;;;5.50
15680;BMP180;15488;48.114;11.532;2022-12-18T05:58:16;96414.00;;;5.50
15680;BMP180;15488;48.114;11.532;2022-12-18T06:00:46;96432.00;;;5.50
15680;BMP180;15488;48.114;11.532;2022-12-18T06:03:14;96422.00;;;5.50
15680;BMP180;15488;48.114;11.532;2022-12-18T06:05:43;96420.00;;;5.50
15680;BMP180;15488;48.114;11.532;2022-12-18T06:08:11;96422.00;;;5.50
15680;BMP180;15488;48.114;11.532;2022-12-18T06:10:39;96413.00;;;5.50
15680;BMP180;15488;48.114;11.532;2022-12-18T06:13:07;96425.00;;;5.50
15680;BMP180;15488;48.114;11.532;2022-12-18T06:15:36;96419.00;;;5.40
15680;BMP180;15488;48.114;11.532;2022-12-18T06:18:05;96412.00;;;5.50
15680;BMP180;15488;48.114;11.532;2022-12-18T06:20:33;96416.00;;;5.40
15680;BMP180;15488;48.114;11.532;2022-12-18T06:23:02;96410.00;;;5.40
15680;BMP180;15488;48.114;11.532;2022-12-18T06:25:30;96426.00;;;5.40
15680;BMP180;15488;48.114;11.532;2022-12-18T06:27:57;96423.00;;;5.40
15680;BMP180;15488;48.114;11.532;2022-12-18T06:30:25;96435.00;;;5.40
15680;BMP180;15488;48.114;11.532;2022-12-18T06:32:52;96426.00;;;5.40
15680;BMP180;15488;48.114;11.532;2022-12-18T06:35:21;96425.00;;;5.40
15680;BMP180;15488;48.114;11.532;2022-12-18T06:37:48;96432.00;;;5.40
15680;BMP180;15488;48.114;11.532;2022-12-18T06:40:16;96447.00;;;5.40
15680;BMP180;15488;48.114;11.532;2022-12-18T06:42:43;96442.00;;;5.50
15680;BMP180;15488;48.114;11.532;2022-12-18T06:45:11;96444.00;;;5.40
15680;BMP180;15488;48.114;11.532;2022-12-18T06:47:41;96445.00;;;5.40
15680;BMP180;15488;48.114;11.532;2022-12-18T06:50:09;96445.00;;;5.50
15680;BMP180;15488;48.114;11.532;2022-12-18T06:52:37;96448.00;;;5.40
15680;BMP180;15488;48.114;11.532;2022-12-18T06:55:07;96441.00;;;5.40
15680;BMP180;15488;48.114;11.532;2022-12-18T06:57:37;96461.00;;;5.50
15680;BMP180;15488;48.114;11.532;2022-12-18T07:00:06;96458.00;;;5.50
15680;BMP180;15488;48.114;11.532;2022-12-18T07:02:34;96465.00;;;5.50
15680;BMP180;15488;48.114;11.532;2022-12-18T07:05:02;96470.00;;;5.50
15680;BMP180;15488;48.114;11.532;2022-12-18T07:07:29;96473.00;;;5.50
15680;BMP180;15488;48.114;11.532;2022-12-18T07:09:58;96476.00;;;5.50
15680;BMP180;15488;48.114;11.532;2022-12-18T07:12:27;96476.00;;;5.50
15680;BMP180;15488;48.114;11.532;2022-12-18T07:14:54;96476.00;;;5.60
15680;BMP180;15488;48.114;11.532;2022-12-18T07:17:22;96484.00;;;5.60
15680;BMP180;15488;48.114;11.532;2022-12-18T07:19:49;96487.00;;;5.60
15680;BMP180;15488;48.114;11.532;2022-12-18T07:22:16;96490.00;;;5.60
15680;BMP180;15488;48.114;11.532;2022-12-18T07:24:44;96488.00;;;5.60
15680;BMP180;15488;48.114;11.532;2022-12-18T07:27:13;96494.00;;;5.60
15680;BMP180;15488;48.114;11.532;2022-12-18T07:29:40;96500.00;;;5.60
15680;BMP180;15488;48.114;11.532;2022-12-18T07:32:07;96498.00;;;5.60
15680;BMP180;15488;48.114;11.532;2022-12-18T07:34:35;96502.00;;;5.60
15680;BMP180;15488;48.114;11.532;2022-12-18T07:37:02;96493.00;;;5.60
15680;BMP180;15488;48.114;11.532;2022-12-18T07:39:30;96491.00;;;5.70
15680;BMP180;15488;48.114;11.532;2022-12-18T07:41:58;96486.00;;;5.70
15680;BMP180;15488;48.114;11.532;2022-12-18T07:44:44;96478.00;;;5.70
15680;BMP180;15488;48.114;11.532;2022-12-18T07:47:12;96479.00;;;5.70
15680;BMP180;15488;48.114;11.532;2022-12-18T07:49:39;96478.00;;;5.70
15680;BMP180;15488;48.114;11.532;2022-12-18T07:52:07;96491.00;;;5.70
15680;BMP180;15488;48.114;11.532;2022-12-18T07:54:35;96492.00;;;5.70
15680;BMP180;15488;48.114;11.532;2022-12-18T07:57:03;96489.00;;;5.70
15680;BMP180;15488;48.114;11.532;2022-12-18T07:59:30;96487.00;;;5.80
15680;BMP180;15488;48.114;11.532;2022-12-18T08:01:59;96493.00;;;5.80
15680;BMP180;15488;48.114;11.532;2022-12-18T08:04:26;96492.00;;;5.80
15680;BMP180;15488;48.114;11.532;2022-12-18T08:06:54;96502.00;;;5.80
15680;BMP180;15488;48.114;11.532;2022-12-18T08:09:21;96497.00;;;5.80
15680;BMP180;15488;48.114;11.532;2022-12-18T08:11:49;96502.00;;;5.80
15680;BMP180;15488;48.114;11.532;2022-12-18T08:14:16;96509.00;;;5.90
15680;BMP180;15488;48.114;11.532;2022-12-18T08:16:45;96515.00;;;5.90
15680;BMP180;15488;48.114;11.532;2022-12-18T08:19:13;96521.00;;;5.90
15680;BMP180;15488;48.114;11.532;2022-12-18T08:21:41;96517.00;;;5.90
15680;BMP180;15488;48.114;11.532;2022-12-18T08:24:09;96519.00;;;5.90
15680;BMP180;15488;48.114;11.532;2022-12-18T08:26:37;96523.00;;;5.90
15680;BMP180;15488;48.114;11.532;2022-12-18T08:29:05;96527.00;;;5.90
15680;BMP180;15488;48.114;11.532;2022-12-18T08:31:32;96518.00;;;6.00
15680;BMP180;15488;48.114;11.532;2022-12-18T08:34:00;96523.00;;;5.90
15680;BMP180;15488;48.114;11.532;2022-12-18T08:36:29;96517.00;;;5.90
15680;BMP180;15488;48.114;11.532;2022-12-18T08:38:57;96516.00;;;5.90
15680;BMP180;15488;48.114;11.532;2022-12-18T08:41:24;96514.00;;;5.90
15680;BMP180;15488;48.114;11.532;2022-12-18T08:43:52;96514.00;;;5.90
15680;BMP180;15488;48.114;11.532;2022-12-18T08:46:38;96515.00;;;5.90
15680;BMP180;15488;48.114;11.532;2022-12-18T08:49:06;96528.00;;;5.90
15680;BMP180;15488;48.114;11.532;2022-12-18T08:51:36;96536.00;;;5.90
15680;BMP180;15488;48.114;11.532;2022-12-18T08:54:04;96532.00;;;5.90
15680;BMP180;15488;48.114;11.532;2022-12-18T08:56:32;96526.00;;;6.00
15680;BMP180;15488;48.114;11.532;2022-12-18T08:59:00;96516.00;;;6.00
15680;BMP180;15488;48.114;11.532;2022-12-18T09:01:27;96520.00;;;6.00
15680;BMP180;15488;48.114;11.532;2022-12-18T09:03:55;96535.00;;;6.00
15680;BMP180;15488;48.114;11.532;2022-12-18T09:06:23;96539.00;;;6.00
15680;BMP180;15488;48.114;11.532;2022-12-18T09:08:53;96528.00;;;6.00
15680;BMP180;15488;48.114;11.532;2022-12-18T09:11:22;96534.00;;;6.00
15680;BMP180;15488;48.114;11.532;2022-12-18T09:13:51;96537.00;;;6.00
15680;BMP180;15488;48.114;11.532;2022-12-18T09:16:18;96536.00;;;6.00
15680;BMP180;15488;48.114;11.532;2022-12-18T09:18:46;96537.00;;;6.00
15680;BMP180;15488;48.114;11.532;2022-12-18T09:21:15;96542.00;;;6.00
15680;BMP180;15488;48.114;11.532;2022-12-18T09:23:43;96559.00;;;6.00
15680;BMP180;15488;48.114;11.532;2022-12-18T09:26:12;96536.00;;;5.90
15680;BMP180;15488;48.114;11.532;2022-12-18T09:28:39;96534.00;;;5.90
15680;BMP180;15488;48.114;11.532;2022-12-18T09:31:08;96540.00;;;5.90
15680;BMP180;15488;48.114;11.532;2022-12-18T09:33:36;96526.00;;;5.90
15680;BMP180;15488;48.114;11.532;2022-12-18T09:36:07;96522.00;;;5.90
15680;BMP180;15488;48.114;11.532;2022-12-18T09:38:35;96530.00;;;6.00
15680;BMP180;15488;48.114;11.532;2022-12-18T09:41:05;96531.00;;;6.00
15680;BMP180;15488;48.114;11.532;2022-12-18T09:43:46;96532.00;;;6.00
15680;BMP180;15488;48.114;11.532;2022-12-18T09:46:19;96525.00;;;6.00
15680;BMP180;15488;48.114;11.532;2022-12-18T09:48:50;96525.00;;;6.00
15680;BMP180;15488;48.114;11.532;2022-12-18T09:51:22;96525.00;;;6.00
15680;BMP180;15488;48.114;11.532;2022-12-18T09:53:53;96530.00;;;5.60
15680;BMP180;15488;48.114;11.532;2022-12-18T09:56:23;96522.00;;;6.00
15680;BMP180;15488;48.114;11.532;2022-12-18T09:58:58;96519.00;;;6.00
15680;BMP180;15488;48.114;11.532;2022-12-18T10:01:27;96519.00;;;6.00
15680;BMP180;15488;48.114;11.532;2022-12-18T10:03:55;96520.00;;;6.00
15680;BMP180;15488;48.114;11.532;2022-12-18T10:06:26;96518.00;;;6.00
15680;BMP180;15488;48.114;11.532;2022-12-18T10:09:02;96523.00;;;6.00
15680;BMP180;15488;48.114;11.532;2022-12-18T10:11:40;96519.00;;;6.00
15680;BMP180;15488;48.114;11.532;2022-12-18T10:14:18;96507.00;;;6.00
15680;BMP180;15488;48.114;11.532;2022-12-18T10:16:56;96502.00;;;6.00
15680;BMP180;15488;48.114;11.532;2022-12-18T10:19:34;96502.00;;;6.00
15680;BMP180;15488;48.114;11.532;2022-12-18T10:22:15;96504.00;;;6.10
15680;BMP180;15488;48.114;11.532;2022-12-18T10:24:50;96505.00;;;6.10
15680;BMP180;15488;48.114;11.532;2022-12-18T10:27:23;96497.00;;;6.10
15680;BMP180;15488;48.114;11.532;2022-12-18T10:29:53;96493.00;;;6.10
15680;BMP180;15488;48.114;11.532;2022-12-18T10:32:23;96343.00;;;6.10
15680;BMP180;15488;48.114;11.532;2022-12-18T10:34:53;96480.00;;;6.10
15680;BMP180;15488;48.114;11.532;2022-12-18T10:37:23;96478.00;;;6.10
15680;BMP180;15488;48.114;11.532;2022-12-18T10:40:08;96474.00;;;6.10
15680;BMP180;15488;48.114;11.532;2022-12-18T10:42:36;96475.00;;;6.10
15680;BMP180;15488;48.114;11.532;2022-12-18T10:45:09;96473.00;;;6.10
15680;BMP180;15488;48.114;11.532;2022-12-18T10:47:42;96478.00;;;6.10
15680;BMP180;15488;48.114;11.532;2022-12-18T10:50:19;96478.00;;;6.10
15680;BMP180;15488;48.114;11.532;2022-12-18T10:52:58;96479.00;;;6.10
15680;BMP180;15488;48.114;11.532;2022-12-18T10:55:30;96474.00;;;6.10
15680;BMP180;15488;48.114;11.532;2022-12-18T10:58:16;96469.00;;;6.10
15680;BMP180;15488;48.114;11.532;2022-12-18T11:00:45;96476.00;;;6.10
15680;BMP180;15488;48.114;11.532;2022-12-18T11:03:31;96486.00;;;6.10
15680;BMP180;15488;48.114;11.532;2022-12-18T11:06:07;96489.00;;;6.10
15680;BMP180;15488;48.114;11.532;2022-12-18T11:08:35;96495.00;;;6.10
15680;BMP180;15488;48.114;11.532;2022-12-18T11:11:03;96500.00;;;6.10
15680;BMP180;15488;48.114;11.532;2022-12-18T11:13:31;96497.00;;;6.10
15680;BMP180;15488;48.114;11.532;2022-12-18T11:16:01;96504.00;;;6.10
15680;BMP180;15488;48.114;11.532;2022-12-18T11:18:31;96508.00;;;6.20
15680;BMP180;15488;48.114;11.532;2022-12-18T11:21:05;96509.00;;;6.20
15680;BMP180;15488;48.114;11.532;2022-12-18T11:23:34;96504.00;;;6.20
15680;BMP180;15488;48.114;11.532;2022-12-18T11:26:04;96499.00;;;6.20
15680;BMP180;15488;48.114;11.532;2022-12-18T11:28:37;96502.00;;;6.30
15680;BMP180;15488;48.114;11.532;2022-12-18T11:31:23;96498.00;;;6.30
15680;BMP180;15488;48.114;11.532;2022-12-18T11:33:57;96488.00;;;6.40
15680;BMP180;15488;48.114;11.532;2022-12-18T11:36:29;96503.00;;;6.40
15680;BMP180;15488;48.114;11.532;2022-12-18T11:39:02;96496.00;;;6.40
15680;BMP180;15488;48.114;11.532;2022-12-18T11:41:34;96486.00;;;6.40
15680;BMP180;15488;48.114;11.532;2022-12-18T11:44:25;96472.00;;;6.40
15680;BMP180;15488;48.114;11.532;2022-12-18T11:47:00;96477.00;;;6.50
15680;BMP180;15488;48.114;11.532;2022-12-18T11:49:33;96474.00;;;6.50
15680;BMP180;15488;48.114;11.532;2022-12-18T11:52:03;96467.00;;;6.50
15680;BMP180;15488;48.114;11.532;2022-12-18T11:54:32;96469.00;;;6.50
15680;BMP180;15488;48.114;11.532;2022-12-18T11:57:05;96468.00;;;6.40
15680;BMP180;15488;48.114;11.532;2022-12-18T11:59:40;96469.00;;;6.00
15680;BMP180;15488;48.114;11.532;2022-12-18T12:02:26;96465.00;;;6.50
15680;BMP180;15488;48.114;11.532;2022-12-18T12:07:54;96465.00;;;6.50
15680;BMP180;15488;48.114;11.532;2022-12-18T12:10:33;96464.00;;;6.50
15680;BMP180;15488;48.114;11.532;2022-12-18T12:13:23;96464.00;;;6.50
15680;BMP180;15488;48.114;11.532;2022-12-18T12:16:09;96466.00;;;6.50
15680;BMP180;15488;48.114;11.532;2022-12-18T12:18:50;96470.00;;;6.50
15680;BMP180;15488;48.114;11.532;2022-12-18T12:21:26;96463.00;;;6.50
15680;BMP180;15488;48.114;11.532;2022-12-18T12:24:03;96461.00;;;6.40
15680;BMP180;15488;48.114;11.532;2022-12-18T12:26:42;96454.00;;;6.40
15680;BMP180;15488;48.114;11.532;2022-12-18T12:29:25;96448.00;;;6.40
15680;BMP180;15488;48.114;11.532;2022-12-18T12:32:09;96447.00;;;6.30
15680;BMP180;15488;48.114;11.532;2022-12-18T12:34:47;96451.00;;;6.40
15680;BMP180;15488;48.114;11.532;2022-12-18T12:37:25;96442.00;;;6.30
15680;BMP180;15488;48.114;11.532;2022-12-18T12:39:57;96435.00;;;6.30
15680;BMP180;15488;48.114;11.532;2022-12-18T12:42:31;96448.00;;;6.30
15680;BMP180;15488;48.114;11.532;2022-12-18T12:45:21;96447.00;;;6.30
15680;BMP180;15488;48.114;11.532;2022-12-18T12:47:50;96448.00;;;6.30
15680;BMP180;15488;48.114;11.532;2022-12-18T12:50:20;96448.00;;;6.20
15680;BMP180;15488;48.114;11.532;2022-12-18T12:52:51;96444.00;;;6.20
15680;BMP180;15488;48.114;11.532;2022-12-18T12:55:22;96441.00;;;6.30
15680;BMP180;15488;48.114;11.532;2022-12-18T12:57:58;96438.00;;;6.30
15680;BMP180;15488;48.114;11.532;2022-12-18T13:00:35;96437.00;;;6.30
15680;BMP180;15488;48.114;11.532;2022-12-18T13:03:12;96451.00;;;6.30
15680;BMP180;15488;48.114;11.532;2022-12-18T13:05:48;96446.00;;;6.30
15680;BMP180;15488;48.114;11.532;2022-12-18T13:08:25;96449.00;;;6.30
15680;BMP180;15488;48.114;11.532;2022-12-18T13:10:53;96452.00;;;6.40
15680;BMP180;15488;48.114;11.532;2022-12-18T13:13:49;96452.00;;;6.40
15680;BMP180;15488;48.114;11.532;2022-12-18T13:16:19;96449.00;;;6.40
15680;BMP180;15488;48.114;11.532;2022-12-18T13:18:50;96447.00;;;6.30
15680;BMP180;15488;48.114;11.532;2022-12-18T13:21:23;96463.00;;;6.40
15680;BMP180;15488;48.114;11.532;2022-12-18T13:23:51;96469.00;;;6.40
15680;BMP180;15488;48.114;11.532;2022-12-18T13:26:30;96469.00;;;6.40
15680;BMP180;15488;48.114;11.532;2022-12-18T13:28:59;96465.00;;;6.40
15680;BMP180;15488;48.114;11.532;2022-12-18T13:34:35;96473.00;;;6.40
15680;BMP180;15488;48.114;11.532;2022-12-18T13:37:42;96461.00;;;6.30
15680;BMP180;15488;48.114;11.532;2022-12-18T13:43:28;96454.00;;;5.80
15680;BMP180;15488;48.114;11.532;2022-12-18T13:46:02;96459.00;;;6.20
15680;BMP180;15488;48.114;11.532;2022-12-18T13:48:32;96457.00;;;6.20
15680;BMP180;15488;48.114;11.532;2022-12-18T13:51:03;96456.00;;;6.20
15680;BMP180;15488;48.114;11.532;2022-12-18T13:53:35;96457.00;;;6.20
15680;BMP180;15488;48.114;11.532;2022-12-18T13:56:04;96446.00;;;6.20
15680;BMP180;15488;48.114;11.532;2022-12-18T13:58:32;96446.00;;;6.20
15680;BMP180;15488;48.114;11.532;2022-12-18T14:01:00;96443.00;;;6.20
15680;BMP180;15488;48.114;11.532;2022-12-18T14:03:30;96446.00;;;6.20
15680;BMP180;15488;48.114;11.532;2022-12-18T14:06:04;96447.00;;;6.20
15680;BMP180;15488;48.114;11.532;2022-12-18T14:08:38;96447.00;;;6.10
15680;BMP180;15488;48.114;11.532;2022-12-18T14:11:07;96457.00;;;6.10
15680;BMP180;15488;48.114;11.532;2022-12-18T14:13:37;96458.00;;;6.10
15680;BMP180;15488;48.114;11.532;2022-12-18T14:16:07;96463.00;;;6.10
15680;BMP180;15488;48.114;11.532;2022-12-18T14:18:44;96453.00;;;6.10
15680;BMP180;15488;48.114;11.532;2022-12-18T14:21:21;96447.00;;;6.10
15680;BMP180;15488;48.114;11.532;2022-12-18T14:24:04;96449.00;;;6.00
15680;BMP180;15488;48.114;11.532;2022-12-18T14:26:32;96454.00;;;6.00
15680;BMP180;15488;48.114;11.532;2022-12-18T14:29:17;96329.00;;;6.00
15680;BMP180;15488;48.114;11.532;2022-12-18T14:31:45;96471.00;;;6.00
15680;BMP180;15488;48.114;11.532;2022-12-18T14:34:16;96472.00;;;5.90
15680;BMP180;15488;48.114;11.532;2022-12-18T14:36:52;96469.00;;;5.90
15680;BMP180;15488;48.114;11.532;2022-12-18T14:39:21;96472.00;;;5.90